Time;durP1;ratioP1;P1;durP2;ratioP2;P2;SDS_P1;SDS_P2;PMS_P1;PMS_P2;Temp;Humidity;BMP_temperature;BMP_pressure;BME280_temperature;BME280_humidity;BME280_pressure;Samples;Min_cycle;Max_cycle;Signal;HPM_P1;HPM_P2
2022/04/11 00:02:06;;;;;;;3.60;1.50;;;;;;;;;;5021795;28;20681;-66
2022/04/11 00:04:54;;;;;;;2.47;1.80;;;;;;;;;;5022341;28;20738;-65
2022/04/11 00:07:41;;;;;;;2.77;1.90;;;;;;;;;;5018580;28;20207;-65
2022/04/11 00:10:28;;;;;;;2.57;1.63;;;;;;;;;;5020445;28;20286;-66
2022/04/11 00:13:15;;;;;;;2.00;1.67;;;;;;;;;;5022228;28;20247;-66
2022/04/11 00:16:02;;;;;;;2.10;1.60;;;;;;;;;;5022225;28;20246;-66
2022/04/11 00:18:49;;;;;;;2.07;1.67;;;;;;;;;;5021402;28;20307;-65
2022/04/11 00:21:37;;;;;;;2.00;1.73;;;;;;;;;;5014961;28;20201;-66
2022/04/11 00:24:24;;;;;;;1.90;1.70;;;;;;;;;;5021155;28;20786;-67
2022/04/11 00:27:11;;;;;;;2.30;1.40;;;;;;;;;;5017891;28;20755;-65
2022/04/11 00:29:57;;;;;;;1.37;1.10;;;;;;;;;;5020435;28;20212;-66
2022/04/11 00:32:45;;;;;;;2.80;1.87;;;;;;;;;;5019349;28;20364;-66
2022/04/11 00:35:32;;;;;;;2.30;1.60;;;;;;;;;;5021459;28;20246;-66
2022/04/11 00:38:20;;;;;;;1.93;1.60;;;;;;;;;;5022246;28;20577;-65
2022/04/11 00:41:07;;;;;;;2.03;1.23;;;;;;;;;;5025421;28;20231;-66
2022/04/11 00:43:54;;;;;;;2.30;1.87;;;;;;;;;;5027436;28;20251;-66
2022/04/11 00:46:41;;;;;;;2.53;1.60;;;;;;;;;;5026362;28;20258;-66
2022/04/11 00:49:28;;;;;;;3.10;1.30;;;;;;;;;;5025288;28;20609;-66
2022/04/11 00:52:16;;;;;;;3.27;1.43;;;;;;;;;;5026155;28;21130;-67
2022/04/11 00:55:07;;;;;;;3.33;1.80;;;;;;;;;;5022328;28;20291;-67
2022/04/11 00:57:54;;;;;;;1.27;1.17;;;;;;;;;;5021858;28;20251;-66
2022/04/11 01:00:41;;;;;;;2.83;1.80;;;;;;;;;;5024588;28;20341;-67
2022/04/11 01:03:28;;;;;;;2.13;1.63;;;;;;;;;;5028523;28;20338;-68
2022/04/11 01:06:15;;;;;;;2.00;1.60;;;;;;;;;;5021565;28;20263;-68
2022/04/11 01:09:02;;;;;;;2.73;1.80;;;;;;;;;;5026286;28;20214;-68
2022/04/11 01:11:51;;;;;;;2.37;1.70;;;;;;;;;;5023917;28;20259;-67
2022/04/11 01:14:38;;;;;;;2.90;1.53;;;;;;;;;;5021480;28;20209;-68
2022/04/11 01:17:32;;;;;;;2.73;1.63;;;;;;;;;;5022806;28;20302;-67
2022/04/11 01:20:20;;;;;;;1.80;1.50;;;;;;;;;;5020432;28;20204;-68
2022/04/11 01:23:08;;;;;;;2.27;1.70;;;;;;;;;;5024434;28;20298;-67
2022/04/11 01:25:56;;;;;;;2.00;1.80;;;;;;;;;;5022982;28;20222;-68
2022/04/11 01:28:44;;;;;;;1.87;1.43;;;;;;;;;;5020887;28;20337;-67
2022/04/11 01:31:31;;;;;;;3.50;1.80;;;;;;;;;;5022955;28;20310;-68
2022/04/11 01:34:18;;;;;;;2.20;1.53;;;;;;;;;;5025454;28;20246;-68
2022/04/11 01:37:05;;;;;;;3.50;1.70;;;;;;;;;;5024042;28;20636;-67
2022/04/11 01:39:54;;;;;;;2.87;1.80;;;;;;;;;;5022184;28;20305;-67
2022/04/11 01:42:42;;;;;;;1.97;1.40;;;;;;;;;;5022051;28;20204;-67
2022/04/11 01:45:29;;;;;;;1.90;1.57;;;;;;;;;;5022867;28;20281;-67
2022/04/11 01:48:17;;;;;;;2.93;1.40;;;;;;;;;;5025943;28;20579;-67
2022/04/11 01:51:04;;;;;;;2.33;1.63;;;;;;;;;;5025792;28;20592;-67
2022/04/11 01:53:51;;;;;;;2.07;1.60;;;;;;;;;;5027881;28;20231;-68
2022/04/11 01:56:39;;;;;;;1.57;1.40;;;;;;;;;;5022204;28;20664;-67
2022/04/11 01:59:26;;;;;;;3.00;1.53;;;;;;;;;;5026714;28;20243;-67
2022/04/11 02:02:13;;;;;;;2.60;1.70;;;;;;;;;;5022385;28;20905;-67
2022/04/11 02:05:00;;;;;;;3.07;1.60;;;;;;;;;;5027455;28;20623;-68
2022/04/11 02:07:46;;;;;;;2.77;1.57;;;;;;;;;;5020646;28;20690;-68
2022/04/11 02:10:35;;;;;;;2.60;1.70;;;;;;;;;;5021649;28;20281;-68
2022/04/11 02:13:23;;;;;;;2.37;1.57;;;;;;;;;;5025793;28;20207;-68
2022/04/11 02:16:10;;;;;;;1.97;1.47;;;;;;;;;;5024784;28;20215;-68
2022/04/11 02:18:57;;;;;;;1.47;1.30;;;;;;;;;;5021207;28;20649;-67
2022/04/11 02:21:44;;;;;;;2.43;1.70;;;;;;;;;;5021709;28;20681;-67
2022/04/11 02:24:31;;;;;;;2.47;1.47;;;;;;;;;;5022581;28;20674;-68
2022/04/11 02:27:18;;;;;;;1.30;1.07;;;;;;;;;;5023355;28;20211;-68
2022/04/11 02:30:07;;;;;;;2.10;1.67;;;;;;;;;;5023223;28;20731;-67
2022/04/11 02:32:55;;;;;;;1.80;1.53;;;;;;;;;;5022942;28;20289;-68
2022/04/11 02:35:42;;;;;;;2.37;1.60;;;;;;;;;;5025528;28;20208;-67
2022/04/11 02:38:29;;;;;;;1.87;1.60;;;;;;;;;;5023150;28;20290;-68
2022/04/11 02:41:17;;;;;;;2.07;1.63;;;;;;;;;;5023279;28;20223;-68
2022/04/11 02:44:05;;;;;;;1.50;1.40;;;;;;;;;;5025319;28;20215;-68
2022/04/11 02:46:53;;;;;;;1.90;1.43;;;;;;;;;;5022839;28;20251;-68
2022/04/11 02:49:40;;;;;;;1.87;1.40;;;;;;;;;;5017136;28;20223;-68
2022/04/11 02:52:28;;;;;;;1.80;1.60;;;;;;;;;;5021515;28;20243;-68
2022/04/11 02:55:15;;;;;;;1.83;1.50;;;;;;;;;;5029244;28;20234;-67
2022/04/11 02:58:02;;;;;;;1.67;1.10;;;;;;;;;;5018239;28;20212;-68
2022/04/11 03:00:49;;;;;;;1.77;1.53;;;;;;;;;;5023276;28;20212;-68
2022/04/11 03:03:37;;;;;;;2.97;1.33;;;;;;;;;;5021774;28;20213;-67
2022/04/11 03:06:24;;;;;;;1.53;1.33;;;;;;;;;;5017460;28;20218;-68
2022/04/11 03:09:11;;;;;;;3.37;1.63;;;;;;;;;;5023513;28;20224;-68
2022/04/11 03:11:58;;;;;;;2.10;1.60;;;;;;;;;;5018427;28;20320;-68
2022/04/11 03:14:45;;;;;;;2.50;1.50;;;;;;;;;;5020022;28;20207;-68
2022/04/11 03:17:32;;;;;;;1.83;1.40;;;;;;;;;;5019463;28;20291;-68
2022/04/11 03:20:20;;;;;;;2.33;1.57;;;;;;;;;;5022051;28;20212;-69
2022/04/11 03:23:07;;;;;;;1.50;1.23;;;;;;;;;;5020357;28;20290;-68
2022/04/11 03:25:54;;;;;;;2.57;1.47;;;;;;;;;;5022084;28;20216;-68
2022/04/11 03:28:41;;;;;;;2.40;1.20;;;;;;;;;;5024910;28;20677;-67
2022/04/11 03:31:28;;;;;;;1.27;1.17;;;;;;;;;;5022348;28;20302;-67
2022/04/11 03:34:15;;;;;;;1.63;1.37;;;;;;;;;;5025498;28;20344;-68
2022/04/11 03:37:04;;;;;;;2.03;1.20;;;;;;;;;;5021939;28;20218;-68
2022/04/11 03:39:51;;;;;;;1.53;1.43;;;;;;;;;;5022537;28;20617;-67
2022/04/11 03:42:38;;;;;;;2.00;1.33;;;;;;;;;;5024282;28;20215;-67
2022/04/11 03:45:25;;;;;;;1.87;1.40;;;;;;;;;;5023169;28;20616;-67
2022/04/11 03:48:12;;;;;;;1.60;1.40;;;;;;;;;;5021650;28;20259;-67
2022/04/11 03:50:59;;;;;;;2.47;1.37;;;;;;;;;;5023137;28;20255;-67
2022/04/11 03:53:48;;;;;;;3.27;1.50;;;;;;;;;;5020851;28;20226;-67
2022/04/11 03:56:35;;;;;;;2.43;1.27;;;;;;;;;;5022151;28;20221;-67
2022/04/11 03:59:22;;;;;;;1.50;1.10;;;;;;;;;;5021476;28;20280;-67
2022/04/11 04:02:08;;;;;;;1.47;1.27;;;;;;;;;;5020152;28;20218;-67
2022/04/11 04:04:55;;;;;;;1.73;1.37;;;;;;;;;;5021035;28;20935;-67
2022/04/11 04:07:42;;;;;;;2.03;1.40;;;;;;;;;;5027522;28;20207;-67
2022/04/11 04:10:30;;;;;;;1.97;1.33;;;;;;;;;;5017269;28;20296;-67
2022/04/11 04:13:17;;;;;;;2.27;1.40;;;;;;;;;;5020869;28;20601;-67
2022/04/11 04:16:05;;;;;;;1.50;1.33;;;;;;;;;;5021763;28;20254;-68
2022/04/11 04:18:52;;;;;;;1.67;1.20;;;;;;;;;;5018078;28;20210;-67
2022/04/11 04:21:39;;;;;;;1.50;1.40;;;;;;;;;;5021233;28;20619;-67
2022/04/11 04:24:26;;;;;;;1.40;1.10;;;;;;;;;;5019240;28;20337;-67
2022/04/11 04:27:14;;;;;;;2.00;1.10;;;;;;;;;;5018373;28;20237;-67
2022/04/11 04:30:01;;;;;;;2.57;1.80;;;;;;;;;;5020272;28;20718;-67
2022/04/11 04:32:49;;;;;;;2.43;1.40;;;;;;;;;;5020226;28;20290;-67
2022/04/11 04:35:36;;;;;;;1.37;1.10;;;;;;;;;;5018990;28;20206;-67
2022/04/11 04:38:23;;;;;;;1.80;1.30;;;;;;;;;;5024128;28;20210;-67
2022/04/11 04:41:09;;;;;;;1.53;1.20;;;;;;;;;;5022778;28;20699;-67
2022/04/11 04:43:58;;;;;;;1.97;1.80;;;;;;;;;;5019512;28;20287;-66
2022/04/11 04:46:45;;;;;;;1.23;1.13;;;;;;;;;;5021326;28;20273;-67
2022/04/11 04:49:31;;;;;;;1.53;1.30;;;;;;;;;;5026042;28;20256;-67
2022/04/11 04:52:19;;;;;;;1.77;1.50;;;;;;;;;;5021723;28;20262;-67
2022/04/11 04:55:07;;;;;;;2.80;1.30;;;;;;;;;;5018033;28;20788;-67
2022/04/11 04:57:54;;;;;;;2.10;1.40;;;;;;;;;;5018990;28;20300;-67
2022/04/11 05:00:42;;;;;;;1.60;1.40;;;;;;;;;;5018948;28;20257;-67
2022/04/11 05:03:29;;;;;;;1.63;1.33;;;;;;;;;;5025522;28;20727;-67
2022/04/11 05:06:16;;;;;;;1.50;1.40;;;;;;;;;;5015357;28;20260;-67
2022/04/11 05:09:03;;;;;;;1.33;1.23;;;;;;;;;;5019902;28;20497;-67
2022/04/11 05:11:50;;;;;;;2.07;1.60;;;;;;;;;;5020008;28;20218;-67
2022/04/11 05:14:37;;;;;;;2.73;1.47;;;;;;;;;;5017909;28;20301;-67
2022/04/11 05:17:25;;;;;;;2.47;1.50;;;;;;;;;;5021197;28;20336;-67
2022/04/11 05:20:13;;;;;;;2.13;1.67;;;;;;;;;;5027483;28;20222;-67
2022/04/11 05:23:00;;;;;;;1.63;1.50;;;;;;;;;;5017612;28;20297;-67
2022/04/11 05:25:47;;;;;;;2.80;1.40;;;;;;;;;;5024526;28;20236;-67
2022/04/11 05:28:34;;;;;;;3.37;1.60;;;;;;;;;;5022890;28;20303;-67
2022/04/11 05:31:21;;;;;;;2.33;1.57;;;;;;;;;;5021674;28;20210;-68
2022/04/11 05:34:09;;;;;;;2.30;1.47;;;;;;;;;;5024432;28;20314;-68
2022/04/11 05:36:56;;;;;;;2.37;1.67;;;;;;;;;;5024505;28;20225;-67
2022/04/11 05:39:43;;;;;;;2.43;1.67;;;;;;;;;;5023114;28;20695;-67
2022/04/11 05:42:30;;;;;;;2.10;1.57;;;;;;;;;;5024578;28;20203;-67
2022/04/11 05:45:17;;;;;;;1.60;1.50;;;;;;;;;;5023777;28;20226;-67
2022/04/11 05:48:05;;;;;;;1.83;1.57;;;;;;;;;;5025849;28;20333;-67
2022/04/11 05:50:53;;;;;;;2.03;1.40;;;;;;;;;;5022120;28;20274;-67
2022/04/11 05:53:40;;;;;;;2.33;1.57;;;;;;;;;;5019309;28;20354;-67
2022/04/11 05:56:27;;;;;;;1.77;1.60;;;;;;;;;;5022952;28;20213;-67
2022/04/11 05:59:14;;;;;;;1.40;1.27;;;;;;;;;;5025844;28;20297;-67
2022/04/11 06:02:01;;;;;;;1.50;1.40;;;;;;;;;;5018913;28;20683;-67
2022/04/11 06:04:48;;;;;;;1.60;1.50;;;;;;;;;;5021728;28;20597;-66
2022/04/11 06:07:36;;;;;;;1.60;1.50;;;;;;;;;;5021493;28;20293;-67
2022/04/11 06:10:23;;;;;;;1.80;1.50;;;;;;;;;;5019321;28;20275;-67
2022/04/11 06:13:10;;;;;;;1.87;1.60;;;;;;;;;;5024587;28;20648;-67
2022/04/11 06:15:58;;;;;;;2.20;1.30;;;;;;;;;;5022848;28;20665;-67
2022/04/11 06:18:45;;;;;;;1.80;1.50;;;;;;;;;;5020520;28;20211;-67
2022/04/11 06:21:32;;;;;;;2.70;1.60;;;;;;;;;;5024246;28;20259;-69
2022/04/11 06:24:20;;;;;;;1.67;1.37;;;;;;;;;;5018049;28;20300;-68
2022/04/11 06:27:07;;;;;;;2.17;1.50;;;;;;;;;;5023503;28;20225;-68
2022/04/11 06:29:56;;;;;;;1.50;1.40;;;;;;;;;;5026293;28;20332;-67
2022/04/11 06:32:43;;;;;;;1.50;1.35;;;;;;;;;;5021619;28;20235;-67
2022/04/11 06:35:30;;;;;;;2.47;1.73;;;;;;;;;;5025304;28;20310;-68
2022/04/11 06:38:17;;;;;;;1.67;1.58;;;;;;;;;;5022249;28;20215;-66
2022/04/11 06:41:05;;;;;;;1.40;1.30;;;;;;;;;;5022747;28;20562;-67
2022/04/11 06:43:52;;;;;;;1.90;1.80;;;;;;;;;;5018810;28;20220;-66
2022/04/11 06:46:39;;;;;;;2.08;1.88;;;;;;;;;;5023628;28;20890;-66
2022/04/11 06:49:26;;;;;;;1.77;1.52;;;;;;;;;;5024386;28;20217;-66
2022/04/11 06:52:13;;;;;;;2.55;1.60;;;;;;;;;;5022017;28;20372;-66
2022/04/11 06:55:00;;;;;;;1.83;1.70;;;;;;;;;;5025557;28;20223;-66
2022/04/11 06:57:49;;;;;;;1.52;1.42;;;;;;;;;;5021052;28;20290;-67
2022/04/11 07:00:35;;;;;;;1.98;1.55;;;;;;;;;;5025226;28;20662;-66
2022/04/11 07:03:22;;;;;;;1.50;1.40;;;;;;;;;;5018633;28;20205;-66
2022/04/11 07:06:10;;;;;;;1.52;1.40;;;;;;;;;;5022108;28;20263;-66
2022/04/11 07:08:57;;;;;;;1.40;1.27;;;;;;;;;;5021462;28;20299;-65
2022/04/11 07:11:44;;;;;;;1.52;1.42;;;;;;;;;;5026106;28;20291;-65
2022/04/11 07:14:33;;;;;;;1.40;1.30;;;;;;;;;;5024238;28;20315;-65
2022/04/11 07:17:20;;;;;;;1.67;1.58;;;;;;;;;;5021949;28;20628;-65
2022/04/11 07:20:07;;;;;;;1.52;1.42;;;;;;;;;;5021049;28;20287;-65
2022/04/11 07:22:54;;;;;;;1.45;1.17;;;;;;;;;;5017822;28;20525;-65
2022/04/11 07:25:41;;;;;;;1.13;1.05;;;;;;;;;;5019214;28;20747;-66
2022/04/11 07:28:28;;;;;;;1.00;1.00;;;;;;;;;;5020056;28;20636;-66
2022/04/11 07:31:16;;;;;;;1.60;1.42;;;;;;;;;;5018033;28;20220;-66
2022/04/11 07:34:03;;;;;;;1.13;1.08;;;;;;;;;;5017853;28;20304;-66
2022/04/11 07:36:50;;;;;;;0.93;0.93;;;;;;;;;;5021964;28;20243;-66
2022/04/11 07:39:37;;;;;;;1.65;1.40;;;;;;;;;;5020253;28;20362;-67
2022/04/11 07:42:24;;;;;;;0.82;0.82;;;;;;;;;;5024207;28;20713;-66
2022/04/11 07:45:11;;;;;;;2.00;1.30;;;;;;;;;;5023985;28;20294;-67
2022/04/11 07:47:59;;;;;;;1.20;1.10;;;;;;;;;;5020928;28;20201;-66
2022/04/11 07:50:46;;;;;;;0.88;0.88;;;;;;;;;;5019732;28;20277;-67
2022/04/11 07:53:33;;;;;;;1.08;1.08;;;;;;;;;;5021792;28;20295;-66
2022/04/11 07:56:20;;;;;;;1.10;1.00;;;;;;;;;;5020577;28;20262;-67
2022/04/11 07:59:07;;;;;;;0.73;0.73;;;;;;;;;;5021644;28;20344;-66
2022/04/11 08:01:54;;;;;;;2.30;1.00;;;;;;;;;;5019964;28;20213;-67
2022/04/11 08:04:42;;;;;;;1.08;0.90;;;;;;;;;;5020295;28;20213;-66
2022/04/11 08:07:31;;;;;;;1.13;0.90;;;;;;;;;;5020686;28;20219;-67
2022/04/11 08:10:19;;;;;;;0.82;0.82;;;;;;;;;;5019671;28;20209;-66
2022/04/11 08:13:06;;;;;;;0.60;0.60;;;;;;;;;;5020458;28;20228;-65
2022/04/11 08:15:52;;;;;;;0.70;0.65;;;;;;;;;;5017389;28;20209;-66
2022/04/11 08:18:39;;;;;;;0.80;0.80;;;;;;;;;;5021214;28;20240;-66
2022/04/11 08:21:28;;;;;;;0.90;0.80;;;;;;;;;;5017087;28;20204;-64
2022/04/11 08:24:15;;;;;;;0.73;0.60;;;;;;;;;;5023232;28;20201;-65
2022/04/11 08:27:02;;;;;;;0.80;0.73;;;;;;;;;;5020862;28;20835;-64
2022/04/11 08:29:49;;;;;;;0.63;0.63;;;;;;;;;;5016566;28;20239;-64
2022/04/11 08:32:39;;;;;;;0.77;0.75;;;;;;;;;;5020140;28;20200;-65
2022/04/11 08:35:26;;;;;;;0.68;0.55;;;;;;;;;;5018146;28;20209;-65
2022/04/11 08:38:14;;;;;;;0.60;0.60;;;;;;;;;;5020975;28;20338;-66
2022/04/11 08:41:03;;;;;;;0.65;0.65;;;;;;;;;;5021830;28;20216;-66
2022/04/11 08:43:52;;;;;;;1.65;0.80;;;;;;;;;;5018593;28;20202;-66
2022/04/11 08:46:40;;;;;;;0.68;0.50;;;;;;;;;;5021016;28;20215;-66
2022/04/11 08:49:28;;;;;;;0.65;0.65;;;;;;;;;;5020193;28;20333;-66
2022/04/11 08:52:15;;;;;;;1.13;0.70;;;;;;;;;;5017285;28;20302;-66
2022/04/11 08:55:03;;;;;;;1.65;0.80;;;;;;;;;;5014004;28;20235;-67
2022/04/11 08:57:51;;;;;;;0.40;0.40;;;;;;;;;;5017785;28;20324;-66
2022/04/11 09:00:38;;;;;;;0.55;0.55;;;;;;;;;;5020823;28;20295;-66
2022/04/11 09:03:25;;;;;;;0.82;0.50;;;;;;;;;;5022564;28;20415;-66
2022/04/11 09:06:14;;;;;;;0.65;0.65;;;;;;;;;;5019362;28;20739;-67
2022/04/11 09:09:02;;;;;;;0.88;0.55;;;;;;;;;;5017669;28;20236;-66
2022/04/11 09:11:51;;;;;;;0.95;0.50;;;;;;;;;;5022269;28;20211;-66
2022/04/11 09:14:38;;;;;;;0.50;0.50;;;;;;;;;;5023635;28;20273;-67
2022/04/11 09:17:26;;;;;;;0.52;0.50;;;;;;;;;;5019488;28;20209;-66
2022/04/11 09:20:14;;;;;;;0.60;0.52;;;;;;;;;;5023451;28;20739;-66
2022/04/11 09:23:02;;;;;;;0.40;0.40;;;;;;;;;;5019755;28;20268;-66
2022/04/11 09:25:49;;;;;;;0.40;0.40;;;;;;;;;;5018859;28;20308;-65
2022/04/11 09:28:37;;;;;;;0.73;0.52;;;;;;;;;;5021907;28;20240;-66
2022/04/11 09:31:24;;;;;;;0.40;0.40;;;;;;;;;;5022424;28;20216;-66
2022/04/11 09:34:19;;;;;;;0.40;0.40;;;;;;;;;;5024993;28;20232;-66
2022/04/11 09:37:09;;;;;;;0.60;0.40;;;;;;;;;;5026236;28;20287;-66
2022/04/11 09:39:57;;;;;;;0.73;0.70;;;;;;;;;;5017645;28;20340;-66
2022/04/11 09:42:44;;;;;;;0.50;0.50;;;;;;;;;;5025312;28;20209;-66
2022/04/11 09:45:32;;;;;;;0.50;0.50;;;;;;;;;;5024485;28;20243;-66
2022/04/11 09:48:21;;;;;;;0.57;0.52;;;;;;;;;;5022957;28;20289;-66
2022/04/11 09:51:10;;;;;;;0.60;0.40;;;;;;;;;;5022081;28;20840;-65
2022/04/11 09:53:57;;;;;;;0.30;0.30;;;;;;;;;;5020524;28;20237;-66
2022/04/11 09:56:44;;;;;;;1.30;0.40;;;;;;;;;;5022131;28;20387;-66
2022/04/11 09:59:31;;;;;;;0.55;0.47;;;;;;;;;;5024203;28;20254;-67
2022/04/11 10:02:22;;;;;;;0.32;0.32;;;;;;;;;;5022679;28;20788;-66
2022/04/11 10:05:12;;;;;;;0.50;0.50;;;;;;;;;;5019452;28;20299;-65
2022/04/11 10:08:01;;;;;;;0.50;0.30;;;;;;;;;;5025913;28;20365;-66
2022/04/11 10:10:48;;;;;;;0.35;0.35;;;;;;;;;;5020559;28;20670;-66
2022/04/11 10:13:36;;;;;;;0.77;0.50;;;;;;;;;;5025337;28;20314;-66
2022/04/11 10:16:24;;;;;;;0.80;0.45;;;;;;;;;;5025764;28;20313;-66
2022/04/11 10:19:13;;;;;;;0.47;0.38;;;;;;;;;;5021532;28;20215;-66
2022/04/11 10:22:03;;;;;;;0.65;0.60;;;;;;;;;;5024109;28;20296;-66
2022/04/11 10:25:01;;;;;;;0.32;0.32;;;;;;;;;;5020089;28;20621;-66
2022/04/11 10:27:48;;;;;;;0.35;0.30;;;;;;;;;;5024491;28;20630;-65
2022/04/11 10:30:35;;;;;;;0.40;0.40;;;;;;;;;;5024911;28;20238;-66
2022/04/11 10:33:40;;;;;;;0.77;0.68;;;;;;;;;;5022189;28;20270;-66
2022/04/11 10:36:30;;;;;;;0.30;0.30;;;;;;;;;;5024741;28;20299;-66
2022/04/11 10:39:29;;;;;;;0.82;0.50;;;;;;;;;;5020821;28;20334;-66
2022/04/11 10:42:18;;;;;;;1.58;0.50;;;;;;;;;;5021924;28;20204;-66
2022/04/11 10:45:29;;;;;;;1.13;0.52;;;;;;;;;;5024627;28;20292;-66
2022/04/11 10:48:17;;;;;;;0.50;0.50;;;;;;;;;;5021901;28;20679;-66
2022/04/11 10:51:15;;;;;;;0.40;0.40;;;;;;;;;;5020253;28;20256;-66
2022/04/11 10:54:21;;;;;;;1.05;0.60;;;;;;;;;;5022146;28;20239;-66
2022/04/11 10:57:08;;;;;;;0.47;0.47;;;;;;;;;;5016533;28;20219;-66
2022/04/11 11:00:09;;;;;;;0.50;0.50;;;;;;;;;;5018252;28;20205;-66
2022/04/11 11:03:13;;;;;;;0.57;0.57;;;;;;;;;;5022673;28;20208;-66
2022/04/11 11:06:16;;;;;;;0.30;0.30;;;;;;;;;;5026003;28;20204;-66
2022/04/11 11:09:15;;;;;;;0.75;0.50;;;;;;;;;;5017875;28;20208;-66
2022/04/11 11:12:21;;;;;;;0.40;0.40;;;;;;;;;;5021381;28;20205;-66
2022/04/11 11:15:27;;;;;;;0.90;0.60;;;;;;;;;;5022066;28;20257;-66
2022/04/11 11:18:14;;;;;;;0.30;0.30;;;;;;;;;;5017098;28;20212;-67
2022/04/11 11:21:01;;;;;;;0.80;0.80;;;;;;;;;;5019387;28;20307;-67
2022/04/11 11:24:10;;;;;;;0.90;0.60;;;;;;;;;;5021747;28;20209;-66
2022/04/11 11:27:03;;;;;;;0.50;0.47;;;;;;;;;;5022844;28;20208;-66
2022/04/11 11:29:52;;;;;;;0.40;0.40;;;;;;;;;;5026891;28;20226;-66
2022/04/11 11:32:41;;;;;;;0.60;0.60;;;;;;;;;;5021878;28;20319;-66
2022/04/11 11:35:28;;;;;;;0.70;0.63;;;;;;;;;;5020923;28;20716;-66
2022/04/11 11:38:16;;;;;;;0.82;0.82;;;;;;;;;;5020163;28;20238;-66
2022/04/11 11:41:04;;;;;;;0.70;0.70;;;;;;;;;;5022891;28;20231;-66
2022/04/11 11:43:55;;;;;;;0.70;0.70;;;;;;;;;;5022566;28;20210;-66
2022/04/11 11:46:48;;;;;;;0.85;0.80;;;;;;;;;;5026295;28;20291;-66
2022/04/11 11:49:40;;;;;;;0.80;0.80;;;;;;;;;;5022048;28;20207;-66
2022/04/11 11:52:27;;;;;;;0.73;0.70;;;;;;;;;;5021440;28;20250;-66
2022/04/11 11:55:14;;;;;;;0.70;0.70;;;;;;;;;;5021227;28;20713;-66
2022/04/11 11:58:04;;;;;;;0.83;0.70;;;;;;;;;;5021327;28;20221;-66
2022/04/11 12:00:51;;;;;;;0.70;0.70;;;;;;;;;;5021050;28;20314;-66
2022/04/11 12:06:54;;;;;;;0.55;0.50;;;;;;;;;;4999409;28;20593;-66
2022/04/11 12:09:41;;;;;;;1.00;0.90;;;;;;;;;;5017619;28;20311;-66
2022/04/11 12:12:28;;;;;;;2.50;1.00;;;;;;;;;;5019788;28;20294;-65
2022/04/11 12:15:15;;;;;;;0.70;0.70;;;;;;;;;;5021833;28;20234;-66
2022/04/11 12:18:05;;;;;;;0.90;0.90;;;;;;;;;;5021236;28;20207;-66
2022/04/11 12:20:53;;;;;;;0.97;0.87;;;;;;;;;;5016392;28;20586;-66
2022/04/11 12:23:45;;;;;;;0.77;0.77;;;;;;;;;;5019293;28;20588;-66
2022/04/11 12:26:34;;;;;;;0.80;0.80;;;;;;;;;;5017230;28;20206;-66
2022/04/11 12:29:21;;;;;;;2.10;0.90;;;;;;;;;;5024542;28;20213;-67
2022/04/11 12:32:13;;;;;;;2.70;0.60;;;;;;;;;;5020194;28;20215;-66
2022/04/11 12:35:14;;;;;;;1.00;0.60;;;;;;;;;;5020763;28;20227;-66
2022/04/11 12:38:07;;;;;;;0.70;0.70;;;;;;;;;;5015268;28;20244;-66
2022/04/11 12:40:55;;;;;;;0.73;0.73;;;;;;;;;;5023127;28;20219;-66
2022/04/11 12:44:00;;;;;;;0.90;0.90;;;;;;;;;;5021005;28;20235;-66
2022/04/11 12:46:49;;;;;;;0.73;0.60;;;;;;;;;;5020108;28;20249;-66
2022/04/11 12:49:47;;;;;;;0.87;0.83;;;;;;;;;;5020565;28;20288;-66
2022/04/11 12:52:38;;;;;;;0.80;0.67;;;;;;;;;;4977861;28;1203704;-65
2022/04/11 12:55:28;;;;;;;1.40;0.80;;;;;;;;;;5021633;28;20319;-66
2022/04/11 12:58:21;;;;;;;1.67;0.80;;;;;;;;;;5023854;28;20258;-66
2022/04/11 13:01:08;;;;;;;0.60;0.60;;;;;;;;;;5022074;28;20212;-66
2022/04/11 13:03:55;;;;;;;0.57;0.57;;;;;;;;;;5017866;28;20817;-66
2022/04/11 13:06:42;;;;;;;0.77;0.77;;;;;;;;;;5018151;28;20247;-66
2022/04/11 13:09:29;;;;;;;0.70;0.70;;;;;;;;;;5017903;28;20361;-66
2022/04/11 13:12:19;;;;;;;0.60;0.60;;;;;;;;;;5019826;28;20294;-66
2022/04/11 13:15:07;;;;;;;0.60;0.53;;;;;;;;;;5023557;28;20286;-66
2022/04/11 13:21:00;;;;;;;1.33;0.83;;;;;;;;;;5021713;28;20213;-65
2022/04/11 13:23:47;;;;;;;0.67;0.60;;;;;;;;;;5020397;28;20500;-66
2022/04/11 13:26:34;;;;;;;0.50;0.50;;;;;;;;;;5019559;28;20285;-66
2022/04/11 13:29:22;;;;;;;0.97;0.97;;;;;;;;;;5018829;28;20286;-65
2022/04/11 13:32:09;;;;;;;1.53;0.90;;;;;;;;;;5019152;28;20209;-66
2022/04/11 13:34:56;;;;;;;1.20;1.17;;;;;;;;;;5022669;28;20245;-66
2022/04/11 13:37:43;;;;;;;0.83;0.83;;;;;;;;;;5022122;28;20276;-66
2022/04/11 13:40:30;;;;;;;2.50;0.90;;;;;;;;;;5020474;28;20917;-66
2022/04/11 13:43:17;;;;;;;1.60;0.90;;;;;;;;;;5017508;28;20666;-66
2022/04/11 13:46:05;;;;;;;0.90;0.90;;;;;;;;;;5024040;28;20248;-66
2022/04/11 13:48:54;;;;;;;0.90;0.70;;;;;;;;;;5026064;28;20262;-66
2022/04/11 13:51:42;;;;;;;1.00;0.90;;;;;;;;;;5021922;28;20711;-66
2022/04/11 13:54:29;;;;;;;1.20;0.90;;;;;;;;;;5023260;28;20213;-65
2022/04/11 13:57:16;;;;;;;0.80;0.80;;;;;;;;;;5020725;28;20294;-66
2022/04/11 14:00:03;;;;;;;1.97;0.63;;;;;;;;;;5025202;28;20290;-66
2022/04/11 14:02:52;;;;;;;0.80;0.80;;;;;;;;;;5023575;28;20612;-66
2022/04/11 14:05:39;;;;;;;1.90;0.90;;;;;;;;;;5023516;28;20217;-66
2022/04/11 14:08:26;;;;;;;1.13;0.80;;;;;;;;;;5022139;28;20208;-66
2022/04/11 14:11:14;;;;;;;0.83;0.83;;;;;;;;;;5020857;28;20224;-68
2022/04/11 14:14:01;;;;;;;1.37;0.93;;;;;;;;;;5024619;28;20705;-66
2022/04/11 14:16:48;;;;;;;0.87;0.87;;;;;;;;;;5025412;28;20220;-66
2022/04/11 14:19:36;;;;;;;1.93;0.77;;;;;;;;;;5020511;28;20708;-65
2022/04/11 14:22:23;;;;;;;2.57;0.83;;;;;;;;;;5025755;28;20225;-66
2022/04/11 14:25:10;;;;;;;1.10;1.00;;;;;;;;;;5022502;28;20206;-66
2022/04/11 14:27:58;;;;;;;1.40;0.90;;;;;;;;;;5029034;28;20294;-66
2022/04/11 14:30:45;;;;;;;1.27;1.00;;;;;;;;;;5018817;28;20640;-66
2022/04/11 14:33:32;;;;;;;0.83;0.70;;;;;;;;;;5026586;28;20294;-66
2022/04/11 14:36:20;;;;;;;1.13;0.80;;;;;;;;;;5020357;28;20235;-71
2022/04/11 14:39:07;;;;;;;2.00;0.93;;;;;;;;;;5018718;28;20464;-67
2022/04/11 14:41:54;;;;;;;0.80;0.80;;;;;;;;;;5020324;28;20259;-66
2022/04/11 14:44:44;;;;;;;1.20;1.10;;;;;;;;;;5019461;28;20211;-66
2022/04/11 14:47:31;;;;;;;1.27;0.90;;;;;;;;;;5021530;28;20216;-66
2022/04/11 14:50:18;;;;;;;1.70;1.00;;;;;;;;;;5023472;28;20289;-66
2022/04/11 14:53:09;;;;;;;1.10;1.00;;;;;;;;;;5023526;28;20235;-67
2022/04/11 14:55:56;;;;;;;1.77;1.23;;;;;;;;;;5020785;28;20234;-67
2022/04/11 14:58:43;;;;;;;1.23;1.07;;;;;;;;;;5024368;28;20217;-66
2022/04/11 15:01:30;;;;;;;1.33;1.23;;;;;;;;;;5019175;28;20264;-67
2022/04/11 15:04:17;;;;;;;1.20;1.10;;;;;;;;;;5022858;28;20206;-67
2022/04/11 15:07:05;;;;;;;2.50;1.33;;;;;;;;;;5024567;28;20286;-66
2022/04/11 15:09:53;;;;;;;1.70;1.13;;;;;;;;;;5020100;28;20212;-66
2022/04/11 15:12:40;;;;;;;0.97;0.90;;;;;;;;;;5018202;28;20209;-66
2022/04/11 15:15:27;;;;;;;1.10;1.00;;;;;;;;;;5023185;28;20392;-66
2022/04/11 15:18:14;;;;;;;1.70;1.17;;;;;;;;;;5017912;28;20215;-67
2022/04/11 15:21:01;;;;;;;0.70;0.70;;;;;;;;;;5023662;28;20229;-67
2022/04/11 15:23:48;;;;;;;1.00;0.90;;;;;;;;;;5020019;28;20211;-67
2022/04/11 15:26:37;;;;;;;1.27;1.17;;;;;;;;;;5020879;28;20285;-67
2022/04/11 15:29:24;;;;;;;2.93;1.07;;;;;;;;;;5023482;28;20261;-67
2022/04/11 15:32:11;;;;;;;1.03;0.70;;;;;;;;;;5019652;28;20270;-66
2022/04/11 15:34:58;;;;;;;0.97;0.60;;;;;;;;;;5021038;28;20601;-66
2022/04/11 15:37:46;;;;;;;1.03;0.70;;;;;;;;;;5022935;28;20217;-66
2022/04/11 15:40:33;;;;;;;1.07;0.80;;;;;;;;;;5021232;28;20384;-66
2022/04/11 15:43:22;;;;;;;0.93;0.73;;;;;;;;;;5022790;28;20325;-66
2022/04/11 15:46:09;;;;;;;0.70;0.63;;;;;;;;;;5022361;28;20209;-67
2022/04/11 15:48:57;;;;;;;0.60;0.60;;;;;;;;;;5017592;28;20214;-67
2022/04/11 15:51:44;;;;;;;0.80;0.80;;;;;;;;;;5026317;28;20664;-66
2022/04/11 15:54:31;;;;;;;1.00;0.93;;;;;;;;;;5024249;28;20205;-66
2022/04/11 15:57:18;;;;;;;0.80;0.80;;;;;;;;;;5024178;28;20241;-67
2022/04/11 16:00:08;;;;;;;2.00;0.77;;;;;;;;;;5018122;28;20244;-67
2022/04/11 16:02:55;;;;;;;0.50;0.50;;;;;;;;;;5023593;28;20209;-67
2022/04/11 16:05:43;;;;;;;0.70;0.70;;;;;;;;;;5018823;28;20202;-66
2022/04/11 16:08:29;;;;;;;0.83;0.83;;;;;;;;;;5017622;28;20247;-67
2022/04/11 16:11:16;;;;;;;0.70;0.70;;;;;;;;;;5018746;28;20249;-67
2022/04/11 16:14:03;;;;;;;1.03;1.00;;;;;;;;;;5022620;28;20709;-67
2022/04/11 16:16:52;;;;;;;0.80;0.80;;;;;;;;;;5023388;28;20220;-66
2022/04/11 16:19:39;;;;;;;1.03;0.70;;;;;;;;;;5023690;28;20682;-66
2022/04/11 16:22:27;;;;;;;0.60;0.60;;;;;;;;;;5018146;28;20210;-67
2022/04/11 16:25:14;;;;;;;0.80;0.60;;;;;;;;;;5022166;28;20217;-67
2022/04/11 16:28:02;;;;;;;0.50;0.50;;;;;;;;;;5022995;28;20291;-66
2022/04/11 16:30:49;;;;;;;0.93;0.87;;;;;;;;;;5019539;28;20295;-67
2022/04/11 16:33:37;;;;;;;0.70;0.70;;;;;;;;;;5021819;28;20244;-67
2022/04/11 16:36:24;;;;;;;0.50;0.50;;;;;;;;;;5020924;28;20348;-67
2022/04/11 16:39:11;;;;;;;0.73;0.70;;;;;;;;;;5021084;28;20232;-66
2022/04/11 16:41:58;;;;;;;0.63;0.63;;;;;;;;;;5023121;28;20217;-66
2022/04/11 16:44:45;;;;;;;0.87;0.70;;;;;;;;;;5022361;28;20248;-67
2022/04/11 16:47:32;;;;;;;0.80;0.80;;;;;;;;;;5018170;28;20230;-67
2022/04/11 16:50:21;;;;;;;0.67;0.67;;;;;;;;;;5022180;28;20204;-66
2022/04/11 16:53:08;;;;;;;0.57;0.57;;;;;;;;;;5027167;28;20371;-66
2022/04/11 16:55:56;;;;;;;0.50;0.50;;;;;;;;;;5017730;28;20656;-66